Beaconsfield, Canada
Current Conditions -  °F | °C
As of 12:00 PM on Saturday 25 Oct 2014 (Local Time) from CYUL Reporting Station
Overcast Overcast  
Wind Chill: 52°   Ceiling: 18000
Heat Index: 52°   Visibility: 15mi
Dew Point: 43°   Wind: 13mph
Humidity: 71%   Direction: 230°SW
Pressure: 29.64"   Gusts: NA
Location:  45.43°N, 73.83°W
Report Text: CYUL 251600Z 23011KT 15SM SCT048 SCT120 BKN180 OVC230 11/06 A2964 RMK SC3AC1AC2CI2 SLP038
Loading
Personal Weather Stations






























Interactive Weather Map
Tropical Storm Tracking
New forecast layout! Learn more

10-Day Weather Forecast

Advertisements
Track Severe Weather on mobile